createdAt,value
2018-09-05T00:02:50.994Z,70.34
2018-09-05T00:05:54.168Z,71.63
2018-09-05T00:08:57.617Z,70.63
2018-09-05T00:12:00.914Z,71.19
2018-09-05T00:15:04.187Z,71.46
2018-09-05T00:18:07.385Z,70.54
2018-09-05T00:21:10.675Z,71.01
2018-09-05T00:24:13.999Z,71.25
2018-09-05T00:27:18.014Z,72.30
2018-09-05T00:30:21.274Z,72.40
2018-09-05T00:33:24.605Z,73.03
2018-09-05T00:36:27.884Z,72.84
2018-09-05T00:39:31.185Z,73.30
2018-09-05T00:42:34.495Z,73.00
2018-09-05T00:45:37.759Z,74.06
2018-09-05T00:48:41.058Z,74.38
2018-09-05T00:51:44.368Z,74.87
2018-09-05T00:54:49.820Z,75.57
2018-09-05T00:57:53.143Z,74.36
2018-09-05T01:00:56.414Z,74.55
2018-09-05T01:03:59.715Z,74.45
2018-09-05T01:07:18.888Z,75.78
2018-09-05T01:10:22.199Z,75.74
2018-09-05T01:13:25.483Z,74.26
2018-09-05T01:16:28.770Z,75.11
2018-09-05T01:19:32.080Z,75.30
2018-09-05T01:22:35.375Z,75.19
2018-09-05T01:25:38.549Z,74.24
2018-09-05T01:28:41.858Z,75.07
2018-09-05T01:31:45.163Z,75.90
2018-09-05T01:34:49.770Z,75.74
2018-09-05T01:37:53.087Z,76.20
2018-09-05T01:40:56.386Z,75.50
2018-09-05T01:43:59.564Z,75.98
2018-09-05T01:47:02.880Z,76.37
2018-09-05T01:50:06.179Z,76.20
2018-09-05T01:53:09.457Z,76.14
2018-09-05T01:56:12.793Z,76.13
2018-09-05T01:59:16.071Z,75.98
2018-09-05T02:02:20.486Z,76.43
2018-09-05T02:05:23.772Z,77.47
2018-09-05T02:08:27.247Z,77.17
2018-09-05T02:11:30.378Z,77.39
2018-09-05T02:14:33.705Z,77.92
2018-09-05T02:17:36.960Z,77.09
2018-09-05T02:20:40.160Z,77.08
2018-09-05T02:23:43.471Z,77.16
2018-09-05T02:26:46.765Z,76.99
2018-09-05T02:29:51.012Z,76.46
2018-09-05T02:32:54.283Z,76.58
2018-09-05T02:35:57.575Z,76.45
2018-09-05T02:39:01.801Z,76.39
2018-09-05T02:42:05.104Z,76.72
2018-09-05T02:45:08.447Z,76.46
2018-09-05T02:48:12.707Z,76.36
2018-09-05T02:51:15.904Z,77.14
2018-09-05T02:54:20.106Z,77.50
2018-09-05T02:57:23.399Z,78.15
2018-09-05T03:00:26.641Z,77.65
2018-09-05T03:03:30.046Z,77.33
2018-09-05T03:06:33.194Z,76.96
2018-09-05T03:09:36.409Z,78.18
2018-09-05T03:12:40.731Z,79.03
2018-09-05T03:15:44.052Z,77.84
2018-09-05T03:18:47.327Z,78.37
2018-09-05T03:21:50.753Z,78.80
2018-09-05T03:24:53.999Z,78.56
2018-09-05T03:27:57.219Z,78.22
2018-09-05T03:31:14.568Z,78.37
2018-09-05T03:34:18.275Z,78.86
2018-09-05T03:37:21.429Z,78.50
2018-09-05T03:40:26.824Z,79.36
2018-09-05T03:43:30.171Z,78.51
2018-09-05T03:46:33.403Z,79.60
2018-09-05T03:49:36.857Z,79.11
2018-09-05T03:52:39.942Z,78.94
2018-09-05T03:55:43.207Z,78.61
2018-09-05T03:58:46.484Z,78.67
2018-09-05T04:01:50.468Z,79.26
2018-09-05T04:04:53.666Z,79.36
2018-09-05T04:07:57.054Z,79.15
2018-09-05T04:11:00.385Z,78.64
2018-09-05T04:14:03.803Z,78.95
2018-09-05T04:17:07.219Z,78.72
2018-09-05T04:20:10.509Z,78.61
2018-09-05T04:23:13.751Z,78.53
2018-09-05T04:26:18.234Z,78.34
2018-09-05T04:29:22.312Z,79.58
2018-09-05T04:32:26.654Z,80.22
2018-09-05T04:35:29.959Z,79.09
2018-09-05T04:38:33.453Z,78.37
2018-09-05T04:41:36.742Z,79.10
2018-09-05T04:44:40.359Z,79.32
2018-09-05T04:47:43.632Z,79.37
2018-09-05T04:50:46.839Z,79.31
2018-09-05T04:53:51.035Z,78.89
2018-09-05T04:56:54.828Z,79.37
2018-09-05T04:59:58.188Z,78.90
2018-09-05T05:03:01.451Z,79.28
2018-09-05T05:06:04.695Z,79.26
2018-09-05T05:09:16.143Z,79.31
2018-09-05T05:12:20.368Z,79.25
2018-09-05T05:15:23.638Z,78.21
2018-09-05T05:18:27.030Z,78.88
2018-09-05T05:21:31.245Z,79.40
2018-09-05T05:24:34.598Z,79.76
2018-09-05T05:27:37.851Z,79.27
2018-09-05T05:30:41.156Z,78.85
2018-09-05T05:33:44.393Z,79.53
2018-09-05T05:36:47.507Z,79.68
2018-09-05T05:39:51.698Z,79.56
2018-09-05T05:42:54.979Z,79.22
2018-09-05T05:45:58.243Z,79.06
2018-09-05T05:49:01.699Z,79.36
2018-09-05T05:52:04.992Z,79.44
2018-09-05T05:55:08.266Z,79.27
2018-09-05T05:58:11.592Z,78.74
2018-09-05T06:01:14.877Z,78.98
2018-09-05T06:04:18.155Z,78.51
2018-09-05T06:07:22.027Z,78.59
2018-09-05T06:10:26.217Z,78.42
2018-09-05T06:13:29.554Z,77.65
2018-09-05T06:16:32.706Z,78.04
2018-09-05T06:19:36.006Z,77.72
2018-09-05T06:22:39.257Z,77.43
2018-09-05T06:25:42.601Z,77.22
2018-09-05T06:28:45.848Z,76.97
2018-09-05T06:31:50.219Z,75.80
2018-09-05T06:34:53.487Z,74.91
2018-09-05T06:37:56.792Z,74.70
2018-09-05T06:40:59.959Z,74.27
2018-09-05T06:44:03.407Z,74.14
2018-09-05T06:47:06.676Z,73.73
2018-09-05T06:50:09.979Z,73.53
2018-09-05T06:53:13.151Z,73.33
2018-09-05T06:56:16.440Z,73.05
2018-09-05T06:59:20.346Z,72.97
2018-09-05T07:02:23.551Z,72.58
2018-09-05T07:05:26.703Z,72.03
2018-09-05T07:08:29.944Z,71.58
2018-09-05T07:11:33.232Z,70.87
2018-09-05T07:14:36.506Z,70.32
2018-09-05T07:17:39.816Z,70.05
2018-09-05T07:20:42.924Z,70.22
2018-09-05T07:23:46.238Z,69.72
2018-09-05T07:26:50.264Z,69.38
2018-09-05T07:29:53.572Z,69.37
2018-09-05T07:32:56.894Z,69.07
2018-09-05T07:36:00.381Z,68.60
2018-09-05T07:39:04.419Z,68.25
2018-09-05T07:42:07.666Z,67.46
2018-09-05T07:45:10.860Z,67.30
2018-09-05T07:48:14.132Z,66.44
2018-09-05T07:51:17.786Z,66.11
2018-09-05T07:54:22.083Z,65.50
2018-09-05T07:57:25.530Z,65.45
2018-09-05T08:00:28.755Z,65.12
2018-09-05T08:03:31.958Z,65.27
2018-09-05T08:06:35.101Z,65.51
2018-09-05T08:09:38.522Z,65.72
2018-09-05T08:12:41.745Z,65.74
2018-09-05T08:15:45.036Z,65.45
2018-09-05T08:18:48.268Z,65.87
2018-09-05T08:21:52.557Z,64.76
2018-09-05T08:24:55.741Z,64.69
2018-09-05T08:27:58.966Z,63.81
2018-09-05T08:31:02.344Z,63.19
2018-09-05T08:34:05.591Z,62.18
2018-09-05T08:37:09.180Z,60.95
2018-09-05T08:40:12.239Z,60.82
2018-09-05T08:43:15.439Z,61.13
2018-09-05T08:46:19.517Z,60.88
2018-09-05T08:49:22.656Z,60.76
2018-09-05T08:52:25.962Z,59.99
2018-09-05T08:55:29.492Z,59.04
2018-09-05T08:58:32.755Z,59.90
2018-09-05T09:01:36.934Z,59.38
2018-09-05T09:04:40.354Z,59.17
2018-09-05T09:07:43.613Z,60.08
2018-09-05T09:10:47.016Z,57.66
2018-09-05T09:13:51.502Z,57.86
2018-09-05T09:16:54.695Z,56.71
2018-09-05T09:19:58.966Z,56.44
2018-09-05T09:23:02.298Z,56.44
2018-09-05T09:26:05.649Z,55.79
2018-09-05T09:29:08.945Z,57.18
2018-09-05T09:32:12.244Z,56.58
2018-09-05T09:35:15.518Z,56.16
2018-09-05T09:38:19.551Z,54.79
2018-09-05T09:41:22.795Z,54.65
2018-09-05T09:44:25.969Z,54.67
2018-09-05T09:47:29.236Z,55.67
2018-09-05T09:50:32.527Z,55.13
2018-09-05T09:53:35.708Z,54.74
2018-09-05T09:56:38.944Z,53.40
2018-09-05T09:59:42.209Z,53.26
2018-09-05T10:02:51.050Z,54.05
2018-09-05T10:05:59.696Z,53.69
2018-09-05T10:09:08.344Z,53.29
2018-09-05T10:12:16.963Z,54.12
2018-09-05T10:15:25.600Z,51.63
2018-09-05T10:18:30.272Z,50.36
2018-09-05T10:21:33.543Z,49.36
2018-09-05T10:24:36.745Z,50.73
2018-09-05T10:27:40.044Z,49.65
2018-09-05T10:30:43.404Z,48.57
2018-09-05T10:33:46.687Z,48.15
2018-09-05T10:36:50.518Z,46.73
2018-09-05T10:39:53.835Z,47.06
2018-09-05T10:42:57.104Z,47.74
2018-09-05T10:46:01.480Z,48.26
2018-09-05T10:49:04.758Z,46.74
2018-09-05T10:52:09.084Z,46.76
2018-09-05T10:55:12.489Z,45.58
2018-09-05T10:58:15.706Z,45.90
2018-09-05T11:01:20.021Z,46.12
2018-09-05T11:04:23.338Z,45.78
2018-09-05T11:07:26.603Z,45.50
2018-09-05T11:10:29.943Z,44.18
2018-09-05T11:13:33.216Z,44.75
2018-09-05T11:16:36.928Z,43.67
2018-09-05T11:19:40.199Z,43.84
2018-09-05T11:22:46.790Z,43.26
2018-09-05T11:25:50.560Z,42.60
2018-09-05T11:28:53.965Z,44.23
2018-09-05T11:31:57.198Z,43.97
2018-09-05T11:35:00.487Z,42.58
2018-09-05T11:38:03.794Z,43.58
2018-09-05T11:41:07.227Z,41.55
2018-09-05T11:44:10.455Z,41.35
2018-09-05T11:47:13.664Z,39.41
2018-09-05T11:50:16.883Z,38.83
2018-09-05T11:53:20.626Z,37.86
2018-09-05T11:56:23.959Z,37.52
2018-09-05T11:59:27.235Z,37.12
2018-09-05T12:02:30.553Z,37.49
2018-09-05T12:05:33.747Z,36.32
2018-09-05T12:08:37.128Z,35.40
2018-09-05T12:11:40.761Z,35.74
2018-09-05T12:14:44.092Z,36.58
2018-09-05T12:17:47.482Z,34.42
2018-09-05T12:20:51.367Z,34.83
2018-09-05T12:23:54.685Z,36.22
2018-09-05T12:26:57.939Z,35.55
2018-09-05T12:30:01.276Z,35.37
2018-09-05T12:33:04.548Z,35.58
2018-09-05T12:36:07.826Z,35.84
2018-09-05T12:39:13.628Z,35.70
2018-09-05T12:42:16.927Z,35.46
2018-09-05T12:45:20.709Z,36.09
2018-09-05T12:48:24.447Z,35.41
2018-09-05T12:51:27.758Z,34.47
2018-09-05T12:54:30.971Z,33.64
2018-09-05T12:57:34.092Z,33.63
2018-09-05T13:00:37.304Z,32.90
2018-09-05T13:03:40.630Z,33.16
2018-09-05T13:06:43.754Z,33.41
2018-09-05T13:09:47.016Z,34.05
2018-09-05T13:12:51.428Z,33.98
2018-09-05T13:15:54.784Z,33.67
2018-09-05T13:18:57.994Z,33.56
2018-09-05T13:22:01.349Z,33.40
2018-09-05T13:25:04.615Z,33.20
2018-09-05T13:28:07.875Z,33.85
2018-09-05T13:31:11.199Z,34.36
2018-09-05T13:34:14.488Z,33.50
2018-09-05T13:37:17.682Z,33.75
2018-09-05T13:40:21.801Z,33.42
2018-09-05T13:43:25.112Z,32.94
2018-09-05T13:46:28.429Z,32.62
2018-09-05T13:49:31.707Z,32.97
2018-09-05T13:52:35.053Z,33.33
2018-09-05T13:55:38.348Z,32.60
2018-09-05T13:58:41.604Z,31.83
2018-09-05T14:01:45.047Z,31.96
2018-09-05T14:04:48.284Z,30.08
2018-09-05T14:07:52.246Z,30.78
2018-09-05T14:10:55.456Z,30.91
2018-09-05T14:13:58.686Z,31.50
2018-09-05T14:17:02.001Z,30.75
2018-09-05T14:20:05.728Z,31.20
2018-09-05T14:23:09.024Z,31.14
2018-09-05T14:26:12.299Z,31.19
2018-09-05T14:29:15.637Z,30.90
2018-09-05T14:32:18.896Z,30.03
2018-09-05T14:35:22.423Z,29.99
2018-09-05T14:38:25.695Z,29.76
2018-09-05T14:41:29.091Z,30.28
2018-09-05T14:44:32.572Z,30.45
2018-09-05T14:47:35.916Z,29.34
2018-09-05T14:50:39.252Z,30.04
2018-09-05T14:53:42.387Z,30.05
2018-09-05T14:56:47.082Z,30.34
2018-09-05T14:59:50.774Z,29.92
2018-09-05T15:02:54.040Z,29.21
2018-09-05T15:05:57.344Z,29.67
2018-09-05T15:09:00.595Z,29.91
2018-09-05T15:12:04.957Z,29.06
2018-09-05T15:15:08.261Z,28.99
2018-09-05T15:18:11.509Z,29.74
2018-09-05T15:21:14.934Z,29.70
2018-09-05T15:24:18.254Z,30.13
2018-09-05T15:27:22.243Z,29.69
2018-09-05T15:30:25.765Z,29.30
2018-09-05T15:33:29.043Z,29.49
2018-09-05T15:36:32.434Z,29.25
2018-09-05T15:39:35.768Z,28.93
2018-09-05T15:42:39.237Z,29.22
2018-09-05T15:45:42.547Z,28.86
2018-09-05T15:48:45.803Z,29.28
2018-09-05T15:51:53.559Z,28.81
2018-09-05T15:54:56.829Z,28.75
2018-09-05T15:58:00.171Z,28.96
2018-09-05T16:01:03.536Z,29.38
2018-09-05T16:04:07.041Z,30.07
2018-09-05T16:07:10.386Z,30.35
2018-09-05T16:10:13.629Z,30.97
2018-09-05T16:13:16.974Z,31.26
2018-09-05T16:16:20.715Z,30.75
2018-09-05T16:19:24.082Z,30.83
2018-09-05T16:22:27.362Z,30.54
2018-09-05T16:25:30.800Z,30.45
2018-09-05T16:28:34.265Z,31.00
2018-09-05T16:31:37.578Z,31.55
2018-09-05T16:34:40.818Z,31.92
2018-09-05T16:37:44.139Z,31.43
2018-09-05T16:40:47.391Z,32.18
2018-09-05T16:43:51.731Z,32.96
2018-09-05T16:46:54.947Z,32.78
2018-09-05T16:49:58.379Z,32.46
2018-09-05T16:53:01.631Z,32.85
2018-09-05T16:56:04.964Z,32.38
2018-09-05T16:59:08.232Z,32.61
2018-09-05T17:02:11.528Z,32.76
2018-09-05T17:05:14.719Z,33.22
2018-09-05T17:08:18.064Z,32.54
2018-09-05T17:11:22.009Z,32.50
2018-09-05T17:14:25.214Z,32.86
2018-09-05T17:17:28.648Z,32.98
2018-09-05T17:20:31.911Z,33.63
2018-09-05T17:23:35.300Z,34.30
2018-09-05T17:26:38.523Z,34.77
2018-09-05T17:29:41.818Z,34.66
2018-09-05T17:32:44.994Z,34.73
2018-09-05T17:35:48.332Z,35.12
2018-09-05T17:38:52.322Z,35.50
2018-09-05T17:41:55.613Z,35.56
2018-09-05T17:44:58.760Z,36.05
2018-09-05T17:48:02.354Z,36.26
2018-09-05T17:51:05.749Z,36.56
2018-09-05T17:54:09.027Z,36.80
2018-09-05T17:57:12.334Z,37.17
2018-09-05T18:00:15.583Z,36.57
2018-09-05T18:03:18.771Z,37.18
2018-09-05T18:06:22.999Z,37.73
2018-09-05T18:09:26.310Z,37.85
2018-09-05T18:12:29.686Z,37.83
2018-09-05T18:15:32.898Z,37.89
2018-09-05T18:18:36.191Z,38.21
2018-09-05T18:21:39.519Z,38.36
2018-09-05T18:24:42.855Z,38.73
2018-09-05T18:27:46.091Z,38.59
2018-09-05T18:30:50.151Z,39.46
2018-09-05T18:33:53.490Z,39.86
2018-09-05T18:36:56.689Z,40.44
2018-09-05T18:40:00.013Z,41.24
2018-09-05T18:43:03.230Z,41.62
2018-09-05T18:46:06.512Z,41.97
2018-09-05T18:49:09.706Z,42.77
2018-09-05T18:52:12.983Z,43.39
2018-09-05T18:55:16.216Z,43.97
2018-09-05T18:58:19.929Z,44.49
2018-09-05T19:01:23.199Z,44.70
2018-09-05T19:04:26.499Z,45.11
2018-09-05T19:07:29.672Z,45.05
2018-09-05T19:10:34.048Z,45.43
2018-09-05T19:13:37.306Z,45.89
2018-09-05T19:16:41.299Z,46.05
2018-09-05T19:19:44.613Z,46.48
2018-09-05T19:22:47.973Z,46.47
2018-09-05T19:25:51.207Z,46.71
2018-09-05T19:28:54.347Z,46.95
2018-09-05T19:31:57.655Z,47.25
2018-09-05T19:35:01.824Z,47.38
2018-09-05T19:38:05.027Z,47.32
2018-09-05T19:41:08.356Z,47.91
2018-09-05T19:44:12.679Z,48.11
2018-09-05T19:47:16.087Z,48.01
2018-09-05T19:50:19.363Z,48.01
2018-09-05T19:53:22.701Z,47.44
2018-09-05T19:56:26.029Z,47.58
2018-09-05T19:59:29.392Z,46.50
2018-09-05T20:02:32.523Z,46.34
2018-09-05T20:05:35.712Z,46.25
2018-09-05T20:08:39.065Z,46.85
2018-09-05T20:11:43.222Z,46.49
2018-09-05T20:14:46.422Z,46.65
2018-09-05T20:17:49.702Z,46.14
2018-09-05T20:20:52.972Z,46.71
2018-09-05T20:24:04.030Z,47.04
2018-09-05T20:27:08.544Z,47.34
2018-09-05T20:30:13.877Z,46.87
2018-09-05T20:33:17.178Z,47.13
2018-09-05T20:36:20.419Z,47.01
2018-09-05T20:39:23.772Z,47.16
2018-09-05T20:42:27.159Z,47.06
2018-09-05T20:45:30.396Z,47.01
2018-09-05T20:48:33.718Z,47.27
2018-09-05T20:51:36.964Z,47.04
2018-09-05T20:54:40.900Z,46.56
2018-09-05T20:57:44.203Z,46.29
2018-09-05T21:00:47.364Z,46.16
2018-09-05T21:03:50.623Z,45.84
2018-09-05T21:06:53.969Z,45.94
2018-09-05T21:09:57.266Z,45.82
2018-09-05T21:13:00.893Z,46.01
2018-09-05T21:16:04.203Z,45.81
2018-09-05T21:19:07.559Z,45.65
2018-09-05T21:22:11.511Z,45.55
2018-09-05T21:25:14.778Z,45.27
2018-09-05T21:28:18.146Z,45.58
2018-09-05T21:31:21.495Z,45.14
2018-09-05T21:34:24.809Z,45.17
2018-09-05T21:37:28.084Z,45.34
2018-09-05T21:40:31.458Z,45.32
2018-09-05T21:43:34.755Z,45.51
2018-09-05T21:46:38.033Z,45.51
2018-09-05T21:49:42.405Z,45.49
2018-09-05T21:52:45.702Z,45.27
2018-09-05T21:55:48.971Z,45.28
2018-09-05T21:58:52.236Z,45.28
2018-09-05T22:01:55.398Z,45.09
2018-09-05T22:04:58.708Z,45.09
2018-09-05T22:08:01.958Z,44.95
2018-09-05T22:11:11.511Z,45.35
2018-09-05T22:14:14.773Z,45.26
2018-09-05T22:17:17.997Z,45.28
2018-09-05T22:20:21.273Z,45.46
2018-09-05T22:23:24.564Z,45.53
2018-09-05T22:26:27.779Z,45.69
2018-09-05T22:29:34.493Z,45.88
2018-09-05T22:32:37.756Z,45.64
2018-09-05T22:35:41.440Z,46.21
2018-09-05T22:38:44.776Z,46.23
2018-09-05T22:41:48.051Z,46.77
2018-09-05T22:45:02.680Z,46.90
2018-09-05T22:48:34.235Z,46.92
2018-09-05T22:53:22.651Z,47.54
2018-09-05T22:58:48.832Z,47.80
2018-09-05T23:02:23.503Z,48.37
2018-09-05T23:08:48.534Z,48.56
2018-09-05T23:12:03.044Z,49.11
2018-09-05T23:15:17.709Z,48.65
2018-09-05T23:18:42.864Z,49.36
2018-09-05T23:21:46.228Z,49.44
2018-09-05T23:24:49.489Z,49.13
2018-09-05T23:27:52.719Z,49.21
2018-09-05T23:30:56.026Z,49.74
2018-09-05T23:33:59.290Z,49.27
2018-09-05T23:37:02.590Z,49.96
2018-09-05T23:40:05.893Z,50.15
2018-09-05T23:43:09.191Z,50.30
2018-09-05T23:46:13.693Z,50.42
2018-09-05T23:49:16.916Z,50.38
2018-09-05T23:52:20.186Z,50.63
2018-09-05T23:55:23.480Z,51.11
2018-09-05T23:58:30.497Z,51.56
